Item Display Status Humidity-temperature Sensor

Elevation Above Sea Level: 3 m

 

Deployed Sensor

  • Serial Number: 61407343
  • NDBC Property Number: 39632
  • Start Date: 5/7/2015 (16:23:27 Z)
  • End Date: 7/20/2016 (20:02:00 Z)
Relative Humidity [%]     6 entries per hour
Showing data from 12/27/2015 (12:00:00 Z) to 12/26/2015 (00:00:01 Z)
Previous Next [ Day | 3-Days | 7-Days ]
First Last
Prev [ Day | 3-Days | 7-Days ] Next
First Last

Start Time:     :
End Time:     :     
Time (in GMT) :00 :50 :40 :30 :20 :10
Previous Next [ Day | 3-Days | 7-Days ]
First Last
Prev [ Day | 3-Days | 7-Days ] Next
First Last


123 => good data
MM => data is determined as missing
-- => data not received/configured
Back to Top Back to Top
12/27/2015 12:00 to 11:10 87.72 89.01 88.19 85.38 84.42 83.43
12/27/2015 11:00 to 10:10 86.77 85.26 86.49 87.90 86.53 83.43
12/27/2015 10:00 to 9:10 84.80 83.23 82.14 81.48 81.78 86.13
12/27/2015 09:00 to 8:10 83.85 88.75 85.81 84.80 84.96 82.93
12/27/2015 08:00 to 7:10 84.72 83.65 84.38 85.95 86.43 88.71
12/27/2015 07:00 to 6:10 88.91 92.28 94.13 89.01 88.25 89.46
12/27/2015 06:00 to 5:10 87.72 88.19 86.59 87.02 88.15 85.97
12/27/2015 05:00 to 4:10 86.41 85.32 86.43 87.72 85.38 82.64
12/27/2015 04:00 to 3:10 84.38 84.80 84.80 85.14 83.65 86.19
12/27/2015 03:00 to 2:10 90.54 86.25 85.75 86.49 86.61 86.90
12/27/2015 02:00 to 1:10 92.28 89.41 90.38 90.74 89.23 90.91
12/27/2015 01:00 to 0:10 91.13 91.91 90.74 88.53 91.55 93.89
12/27/2015 00:00 to 23:10 88.91 86.29 85.69 84.22 85.65 85.99
12/26/2015 23:00 to 22:10 86.11 86.45 87.30 86.82 82.74 83.69
12/26/2015 22:00 to 21:10 86.75 87.96 85.89 85.22 86.94 85.28
12/26/2015 21:00 to 20:10 83.85 85.18 90.66 89.92 89.25 96.25
12/26/2015 20:00 to 19:10 96.93 97.62 93.55 92.36 92.92 96.35
12/26/2015 19:00 to 18:10 97.37 96.49 96.29 93.55 92.13 95.70
12/26/2015 18:00 to 17:10 97.27 97.64 97.37 96.47 91.49 92.30
12/26/2015 17:00 to 16:10 94.31 94.51 92.80 91.91 90.79 94.51
12/26/2015 16:00 to 15:10 94.57 95.08 92.80 93.20 90.00 89.54
12/26/2015 15:00 to 14:10 90.22 95.66 96.23 92.90 92.40 84.26
12/26/2015 14:00 to 13:10 83.77 85.18 84.66 82.30 80.06 81.01
12/26/2015 13:00 to 12:10 80.53 81.25 81.09 80.67 80.15 79.92
12/26/2015 12:00 to 11:10 81.44 82.08 82.34 86.07 86.43 84.66
12/26/2015 11:00 to 10:10 81.74 84.86 82.38 81.92 83.03 83.49
12/26/2015 10:00 to 9:10 83.67 81.62 80.55 81.27 82.18 80.63
12/26/2015 09:00 to 8:10 80.65 78.31 80.29 80.59 80.57 84.12
12/26/2015 08:00 to 7:10 82.58 80.59 80.77 86.25 81.09 81.48
12/26/2015 07:00 to 6:10 81.50 80.45 80.09 81.33 80.69 81.46
12/26/2015 06:00 to 5:10 81.54 82.08 84.60 83.37 83.93 82.48
12/26/2015 05:00 to 4:10 88.43 89.15 85.30 88.00 90.42 84.96
12/26/2015 04:00 to 3:10 88.65 81.74 80.97 79.92 80.00 78.53
12/26/2015 03:00 to 2:10 79.18 81.35 81.33 83.11 81.35 90.04
12/26/2015 02:00 to 1:10 83.61 82.10 81.76 83.19 84.60 86.15
12/26/2015 01:00 to 0:10 88.00 81.44 80.35 81.07 80.61 80.69

 

 

 

Air Temperature [°C]     6 entries per hour
Showing data from 12/27/2015 (12:00:00 Z) to 12/26/2015 (00:00:01 Z)
Previous Next [ Day | 3-Days | 7-Days ]
First Last
Prev [ Day | 3-Days | 7-Days ] Next
First Last

Start Time:     :
End Time:     :     
Time (in GMT) :00 :50 :40 :30 :20 :10
Previous Next [ Day | 3-Days | 7-Days ]
First Last
Prev [ Day | 3-Days | 7-Days ] Next
First Last


123 => good data
MM => data is determined as missing
-- => data not received/configured
Back to Top Back to Top
12/27/2015 12:00 to 11:10 27.73 27.72 27.94 28.26 28.17 27.90
12/27/2015 11:00 to 10:10 28.06 27.98 28.04 27.94 28.29 28.38
12/27/2015 10:00 to 9:10 28.31 28.17 28.34 28.23 28.18 28.16
12/27/2015 09:00 to 8:10 27.92 27.40 28.44 28.43 28.14 28.49
12/27/2015 08:00 to 7:10 28.38 28.27 28.20 28.04 28.07 27.46
12/27/2015 07:00 to 6:10 27.33 26.79 26.60 28.07 28.09 28.24
12/27/2015 06:00 to 5:10 28.04 28.13 28.03 27.95 27.82 27.98
12/27/2015 05:00 to 4:10 28.01 28.27 28.38 28.32 28.19 28.14
12/27/2015 04:00 to 3:10 28.29 28.17 28.22 28.36 28.34 28.04
12/27/2015 03:00 to 2:10 27.87 28.09 28.03 27.95 27.85 27.91
12/27/2015 02:00 to 1:10 27.49 27.64 27.66 27.91 27.70 27.59
12/27/2015 01:00 to 0:10 27.36 27.44 27.50 27.54 27.46 27.07
12/27/2015 00:00 to 23:10 28.16 28.73 28.67 28.63 28.56 28.62
12/26/2015 23:00 to 22:10 28.52 28.49 28.38 28.21 28.43 28.65
12/26/2015 22:00 to 21:10 28.49 28.42 28.21 28.09 28.06 27.87
12/26/2015 21:00 to 20:10 27.84 27.44 27.32 27.43 27.23 26.32
12/26/2015 20:00 to 19:10 26.79 26.67 27.04 27.31 27.21 26.40
12/26/2015 19:00 to 18:10 25.96 26.66 27.00 27.07 27.67 27.34
12/26/2015 18:00 to 17:10 26.84 26.02 26.59 26.38 26.88 26.95
12/26/2015 17:00 to 16:10 26.94 27.04 27.22 27.42 27.56 27.26
12/26/2015 16:00 to 15:10 26.92 26.85 27.39 27.28 27.16 26.93
12/26/2015 15:00 to 14:10 27.83 26.75 26.73 27.12 27.08 28.62
12/26/2015 14:00 to 13:10 28.39 29.17 29.28 29.63 29.68 29.69
12/26/2015 13:00 to 12:10 29.71 29.64 29.73 29.61 29.60 29.62
12/26/2015 12:00 to 11:10 29.66 29.57 29.52 29.08 29.00 29.16
12/26/2015 11:00 to 10:10 29.27 28.92 29.59 29.52 29.33 28.76
12/26/2015 10:00 to 9:10 29.35 29.51 29.52 29.48 29.49 29.43
12/26/2015 09:00 to 8:10 29.41 29.43 29.41 29.42 29.51 29.14
12/26/2015 08:00 to 7:10 29.45 29.38 29.25 28.63 29.40 29.38
12/26/2015 07:00 to 6:10 29.35 29.33 29.38 29.27 29.37 29.39
12/26/2015 06:00 to 5:10 29.32 29.23 28.90 29.29 29.19 29.17
12/26/2015 05:00 to 4:10 28.55 28.39 28.76 28.44 28.00 28.84
12/26/2015 04:00 to 3:10 28.09 29.25 29.23 29.13 29.15 29.23
12/26/2015 03:00 to 2:10 29.19 29.15 29.05 28.66 27.92 27.10
12/26/2015 02:00 to 1:10 29.08 29.08 29.14 29.04 28.89 28.67
12/26/2015 01:00 to 0:10 28.36 29.17 29.20 29.25 29.00 28.96